JZA3761 CYQB-CYOW
Flight info
| Callsign | JZA3761 |
|---|---|
| Flight time | 0h 57m |
| Altitude | 24000 |
| Route | IMORI DCT UDBAM DCT DICEN Q878 ALIDO |
| Aircraft | DH8D/M-SDE2E3FGRY/H |
Departure
| Time | 2026-05-06 19:15 |
|---|---|
| Airport | Quebec Jean Lesage International Airport (CYQB) |
Arrival
| Time | 2026-05-06 20:12 |
|---|---|
| Airport | Ottawa Macdonald-Cartier International Airport (CYOW) |
| Time | Latitude | Longitude | Altitude | Speed | Heading |
|---|---|---|---|---|---|
| 2026-05-06 18:58 | 46.79058 | -71.38520 | 252 ft | 0 kts | 76° |
| 2026-05-06 19:07 | 46.79057 | -71.38524 | 252 ft | 2 kts | 76° |
| 2026-05-06 19:08 | 46.79052 | -71.38553 | 252 ft | 3 kts | 76° |
| 2026-05-06 19:08 | 46.79047 | -71.38584 | 252 ft | 3 kts | 76° |
| 2026-05-06 19:08 | 46.79046 | -71.38613 | 252 ft | 3 kts | 129° |
| 2026-05-06 19:08 | 46.79055 | -71.38624 | 252 ft | 0 kts | 152° |
| 2026-05-06 19:10 | 46.79056 | -71.38625 | 252 ft | 0 kts | 152° |
| 2026-05-06 19:10 | 46.79057 | -71.38625 | 252 ft | 0 kts | 152° |
| 2026-05-06 19:10 | 46.79058 | -71.38626 | 252 ft | 0 kts | 152° |
| 2026-05-06 19:11 | 46.79059 | -71.38627 | 252 ft | 0 kts | 152° |
| 2026-05-06 19:11 | 46.79060 | -71.38628 | 252 ft | 0 kts | 152° |
| 2026-05-06 19:11 | 46.79056 | -71.38625 | 252 ft | 3 kts | 152° |
| 2026-05-06 19:11 | 46.79012 | -71.38590 | 252 ft | 12 kts | 151° |
| 2026-05-06 19:12 | 46.78955 | -71.38522 | 252 ft | 11 kts | 104° |
| 2026-05-06 19:12 | 46.78947 | -71.38439 | 252 ft | 14 kts | 98° |
| 2026-05-06 19:12 | 46.78932 | -71.38283 | 252 ft | 16 kts | 97° |
| 2026-05-06 19:12 | 46.78916 | -71.38120 | 252 ft | 13 kts | 108° |
| 2026-05-06 19:13 | 46.78840 | -71.38098 | 252 ft | 13 kts | 189° |
| 2026-05-06 19:13 | 46.78787 | -71.38110 | 252 ft | 0 kts | 187° |
| 2026-05-06 19:13 | 46.78778 | -71.38111 | 252 ft | 6 kts | 187° |
| 2026-05-06 19:13 | 46.78722 | -71.38132 | 252 ft | 7 kts | 224° |
| 2026-05-06 19:14 | 46.78714 | -71.38193 | 252 ft | 6 kts | 275° |
| 2026-05-06 19:14 | 46.78743 | -71.38528 | 252 ft | 72 kts | 277° |
| 2026-05-06 19:14 | 46.78850 | -71.39607 | 258 ft | 137 kts | 275° |
| 2026-05-06 19:14 | 46.78981 | -71.41110 | 708 ft | 155 kts | 276° |
| 2026-05-06 19:15 | 46.79092 | -71.42217 | 1105 ft | 163 kts | 278° |
| 2026-05-06 19:15 | 46.79259 | -71.43887 | 1741 ft | 171 kts | 275° |
| 2026-05-06 19:15 | 46.79087 | -71.45651 | 2335 ft | 178 kts | 247° |
| 2026-05-06 19:15 | 46.78475 | -71.47314 | 2999 ft | 184 kts | 235° |
| 2026-05-06 19:16 | 46.77775 | -71.48925 | 3765 ft | 186 kts | 234° |
| 2026-05-06 19:16 | 46.77074 | -71.50529 | 4589 ft | 184 kts | 233° |
| 2026-05-06 19:16 | 46.76375 | -71.52096 | 5446 ft | 179 kts | 233° |
| 2026-05-06 19:16 | 46.75681 | -71.53596 | 6335 ft | 174 kts | 232° |
| 2026-05-06 19:17 | 46.74974 | -71.55034 | 7201 ft | 171 kts | 232° |
| 2026-05-06 19:17 | 46.74266 | -71.56435 | 7998 ft | 172 kts | 232° |
| 2026-05-06 19:17 | 46.73806 | -71.57384 | 8510 ft | 172 kts | 233° |
| 2026-05-06 19:17 | 46.73138 | -71.58835 | 9274 ft | 172 kts | 234° |
| 2026-05-06 19:18 | 46.72480 | -71.60285 | 10046 ft | 171 kts | 234° |
| 2026-05-06 19:18 | 46.71818 | -71.61730 | 10787 ft | 171 kts | 233° |
| 2026-05-06 19:18 | 46.71173 | -71.63188 | 11463 ft | 173 kts | 240° |
| 2026-05-06 19:18 | 46.70892 | -71.64911 | 12096 ft | 179 kts | 261° |
| 2026-05-06 19:19 | 46.70957 | -71.66740 | 12712 ft | 182 kts | 268° |
| 2026-05-06 19:19 | 46.71093 | -71.68586 | 13312 ft | 182 kts | 269° |
| 2026-05-06 19:19 | 46.71245 | -71.70403 | 13895 ft | 182 kts | 270° |
| 2026-05-06 19:19 | 46.71438 | -71.72246 | 14428 ft | 185 kts | 272° |
| 2026-05-06 19:20 | 46.71681 | -71.74114 | 14903 ft | 189 kts | 274° |
| 2026-05-06 19:20 | 46.71873 | -71.75395 | 15218 ft | 192 kts | 274° |
| 2026-05-06 19:20 | 46.72177 | -71.77294 | 15672 ft | 194 kts | 275° |
| 2026-05-06 19:20 | 46.72492 | -71.79205 | 16123 ft | 196 kts | 275° |
| 2026-05-06 19:21 | 46.72816 | -71.81128 | 16561 ft | 197 kts | 275° |
| 2026-05-06 19:21 | 46.73142 | -71.83044 | 16989 ft | 198 kts | 275° |
| 2026-05-06 19:21 | 46.73472 | -71.84998 | 17413 ft | 199 kts | 275° |
| 2026-05-06 19:21 | 46.73785 | -71.86860 | 17805 ft | 200 kts | 274° |
| 2026-05-06 19:22 | 46.74120 | -71.88850 | 18210 ft | 201 kts | 274° |
| 2026-05-06 19:22 | 46.74451 | -71.90824 | 18596 ft | 202 kts | 274° |
| 2026-05-06 19:22 | 46.74788 | -71.92824 | 18968 ft | 203 kts | 274° |
| 2026-05-06 19:22 | 46.75015 | -71.94166 | 19208 ft | 204 kts | 274° |
| 2026-05-06 19:23 | 46.75350 | -71.96145 | 19555 ft | 205 kts | 274° |
| 2026-05-06 19:23 | 46.75684 | -71.98159 | 19899 ft | 205 kts | 274° |
| 2026-05-06 19:23 | 46.75997 | -72.00195 | 20233 ft | 206 kts | 272° |
| 2026-05-06 19:23 | 46.76287 | -72.02207 | 20544 ft | 207 kts | 272° |
| 2026-05-06 19:24 | 46.76572 | -72.04255 | 20862 ft | 207 kts | 272° |
| 2026-05-06 19:24 | 46.76852 | -72.06269 | 21164 ft | 208 kts | 271° |
| 2026-05-06 19:24 | 46.77143 | -72.08340 | 21463 ft | 209 kts | 271° |
| 2026-05-06 19:24 | 46.77436 | -72.10418 | 21753 ft | 210 kts | 271° |
| 2026-05-06 19:25 | 46.77731 | -72.12507 | 22035 ft | 211 kts | 271° |
| 2026-05-06 19:25 | 46.78027 | -72.14604 | 22306 ft | 212 kts | 271° |
| 2026-05-06 19:25 | 46.78223 | -72.15998 | 22483 ft | 212 kts | 271° |
| 2026-05-06 19:25 | 46.78519 | -72.18110 | 22746 ft | 213 kts | 271° |
| 2026-05-06 19:26 | 46.78817 | -72.20226 | 22994 ft | 214 kts | 270° |
| 2026-05-06 19:26 | 46.79113 | -72.22346 | 23246 ft | 215 kts | 270° |
| 2026-05-06 19:26 | 46.79364 | -72.24138 | 23442 ft | 213 kts | 270° |
| 2026-05-06 19:26 | 46.79585 | -72.25642 | 23638 ft | 207 kts | 270° |
| 2026-05-06 19:27 | 46.79718 | -72.27702 | 23758 ft | 201 kts | 257° |
| 2026-05-06 19:27 | 46.79444 | -72.29681 | 23822 ft | 204 kts | 248° |
| 2026-05-06 19:27 | 46.79013 | -72.31689 | 23847 ft | 213 kts | 248° |
| 2026-05-06 19:27 | 46.78562 | -72.33794 | 23855 ft | 222 kts | 248° |
| 2026-05-06 19:28 | 46.78109 | -72.35873 | 23858 ft | 230 kts | 248° |
| 2026-05-06 19:28 | 46.77774 | -72.37355 | 23860 ft | 235 kts | 247° |
| 2026-05-06 19:28 | 46.77243 | -72.39642 | 23860 ft | 242 kts | 246° |
| 2026-05-06 19:28 | 46.76683 | -72.41978 | 23860 ft | 248 kts | 246° |
| 2026-05-06 19:29 | 46.76094 | -72.44359 | 23859 ft | 254 kts | 246° |
| 2026-05-06 19:29 | 46.75484 | -72.46765 | 23859 ft | 259 kts | 246° |
| 2026-05-06 19:29 | 46.74866 | -72.49207 | 23859 ft | 263 kts | 246° |
| 2026-05-06 19:29 | 46.74229 | -72.51734 | 23859 ft | 267 kts | 246° |
| 2026-05-06 19:30 | 46.73588 | -72.54291 | 23858 ft | 271 kts | 246° |
| 2026-05-06 19:30 | 46.72947 | -72.56843 | 23858 ft | 274 kts | 246° |
| 2026-05-06 19:30 | 46.72289 | -72.59447 | 23858 ft | 277 kts | 246° |
| 2026-05-06 19:30 | 46.71615 | -72.62097 | 23858 ft | 279 kts | 246° |
| 2026-05-06 19:31 | 46.71158 | -72.63888 | 23858 ft | 281 kts | 246° |
| 2026-05-06 19:31 | 46.70479 | -72.66551 | 23858 ft | 283 kts | 246° |
| 2026-05-06 19:31 | 46.69116 | -72.71895 | 23857 ft | 286 kts | 246° |
| 2026-05-06 19:32 | 46.68423 | -72.74598 | 23857 ft | 287 kts | 246° |
| 2026-05-06 19:32 | 46.67731 | -72.77302 | 23857 ft | 288 kts | 246° |
| 2026-05-06 19:32 | 46.67031 | -72.80031 | 23857 ft | 289 kts | 246° |
| 2026-05-06 19:32 | 46.66368 | -72.82616 | 23857 ft | 290 kts | 246° |
| 2026-05-06 19:33 | 46.65674 | -72.85321 | 23857 ft | 290 kts | 246° |
| 2026-05-06 19:33 | 46.64979 | -72.88021 | 23857 ft | 291 kts | 246° |
| 2026-05-06 19:33 | 46.64281 | -72.90728 | 23857 ft | 291 kts | 246° |
| 2026-05-06 19:33 | 46.63803 | -72.92582 | 23856 ft | 292 kts | 246° |
| 2026-05-06 19:34 | 46.63112 | -72.95259 | 23856 ft | 292 kts | 246° |
| 2026-05-06 19:34 | 46.62407 | -72.97987 | 23856 ft | 292 kts | 246° |
| 2026-05-06 19:34 | 46.61697 | -73.00730 | 23856 ft | 293 kts | 246° |
| 2026-05-06 19:34 | 46.60980 | -73.03498 | 23856 ft | 293 kts | 246° |
| 2026-05-06 19:35 | 46.60265 | -73.06253 | 23856 ft | 293 kts | 246° |
| 2026-05-06 19:35 | 46.59547 | -73.09018 | 23855 ft | 293 kts | 246° |
| 2026-05-06 19:35 | 46.58827 | -73.11789 | 23855 ft | 293 kts | 246° |
| 2026-05-06 19:35 | 46.58108 | -73.14552 | 23853 ft | 294 kts | 246° |
| 2026-05-06 19:36 | 46.57398 | -73.17277 | 23852 ft | 294 kts | 246° |
| 2026-05-06 19:36 | 46.56681 | -73.20024 | 23853 ft | 294 kts | 246° |
| 2026-05-06 19:36 | 46.56193 | -73.21891 | 23854 ft | 294 kts | 246° |
| 2026-05-06 19:36 | 46.55474 | -73.24643 | 23854 ft | 294 kts | 246° |
| 2026-05-06 19:37 | 46.54803 | -73.27205 | 23855 ft | 294 kts | 246° |
| 2026-05-06 19:37 | 46.54069 | -73.29953 | 23856 ft | 294 kts | 246° |
| 2026-05-06 19:37 | 46.53329 | -73.32698 | 23856 ft | 295 kts | 247° |
| 2026-05-06 19:37 | 46.52602 | -73.35466 | 23857 ft | 295 kts | 247° |
| 2026-05-06 19:38 | 46.51882 | -73.38257 | 23855 ft | 296 kts | 247° |
| 2026-05-06 19:38 | 46.51169 | -73.41045 | 23850 ft | 296 kts | 247° |
| 2026-05-06 19:38 | 46.50446 | -73.43828 | 23846 ft | 296 kts | 247° |
| 2026-05-06 19:38 | 46.49721 | -73.46581 | 23849 ft | 296 kts | 246° |
| 2026-05-06 19:39 | 46.49237 | -73.48412 | 23847 ft | 296 kts | 246° |
| 2026-05-06 19:39 | 46.48504 | -73.51170 | 23846 ft | 295 kts | 246° |
| 2026-05-06 19:39 | 46.47775 | -73.53917 | 23844 ft | 295 kts | 246° |
| 2026-05-06 19:39 | 46.47049 | -73.56657 | 23846 ft | 294 kts | 246° |
| 2026-05-06 19:40 | 46.46322 | -73.59394 | 23843 ft | 294 kts | 246° |
| 2026-05-06 19:40 | 46.45606 | -73.62085 | 23843 ft | 294 kts | 247° |
| 2026-05-06 19:40 | 46.44891 | -73.64771 | 23843 ft | 294 kts | 246° |
| 2026-05-06 19:40 | 46.44169 | -73.67480 | 23845 ft | 294 kts | 246° |
| 2026-05-06 19:41 | 46.43436 | -73.70220 | 23842 ft | 294 kts | 246° |
| 2026-05-06 19:41 | 46.42739 | -73.72833 | 23839 ft | 294 kts | 246° |
| 2026-05-06 19:41 | 46.42012 | -73.75558 | 23839 ft | 293 kts | 246° |
| 2026-05-06 19:41 | 46.41527 | -73.77388 | 23845 ft | 293 kts | 246° |
| 2026-05-06 19:42 | 46.40817 | -73.80058 | 23841 ft | 293 kts | 246° |
| 2026-05-06 19:42 | 46.40096 | -73.82741 | 23846 ft | 292 kts | 246° |
| 2026-05-06 19:42 | 46.39354 | -73.85475 | 23847 ft | 292 kts | 246° |
| 2026-05-06 19:42 | 46.38620 | -73.88209 | 23846 ft | 292 kts | 246° |
| 2026-05-06 19:43 | 46.37892 | -73.90926 | 23846 ft | 292 kts | 246° |
| 2026-05-06 19:43 | 46.37157 | -73.93661 | 23846 ft | 292 kts | 246° |
| 2026-05-06 19:43 | 46.36420 | -73.96386 | 23847 ft | 292 kts | 246° |
| 2026-05-06 19:43 | 46.35631 | -73.99074 | 23848 ft | 291 kts | 243° |
| 2026-05-06 19:44 | 46.34752 | -74.01648 | 23849 ft | 291 kts | 241° |
| 2026-05-06 19:44 | 46.33824 | -74.04212 | 23849 ft | 291 kts | 241° |
| 2026-05-06 19:44 | 46.33183 | -74.05945 | 23849 ft | 291 kts | 241° |
| 2026-05-06 19:44 | 46.32253 | -74.08447 | 23850 ft | 292 kts | 241° |
| 2026-05-06 19:45 | 46.31316 | -74.11049 | 23852 ft | 293 kts | 242° |
| 2026-05-06 19:45 | 46.30404 | -74.13634 | 23853 ft | 293 kts | 242° |
| 2026-05-06 19:45 | 46.29531 | -74.16123 | 23854 ft | 293 kts | 242° |
| 2026-05-06 19:45 | 46.28620 | -74.18708 | 23855 ft | 294 kts | 242° |
| 2026-05-06 19:46 | 46.27688 | -74.21340 | 23856 ft | 294 kts | 242° |
| 2026-05-06 19:46 | 46.26760 | -74.23957 | 23856 ft | 294 kts | 242° |
| 2026-05-06 19:46 | 46.25835 | -74.26569 | 23857 ft | 295 kts | 242° |
| 2026-05-06 19:46 | 46.24912 | -74.29169 | 23857 ft | 295 kts | 242° |
| 2026-05-06 19:47 | 46.23983 | -74.31773 | 23857 ft | 295 kts | 242° |
| 2026-05-06 19:47 | 46.23362 | -74.33497 | 23856 ft | 296 kts | 242° |
| 2026-05-06 19:47 | 46.22420 | -74.36111 | 23856 ft | 296 kts | 242° |
| 2026-05-06 19:47 | 46.21479 | -74.38727 | 23856 ft | 297 kts | 242° |
| 2026-05-06 19:48 | 46.20545 | -74.41339 | 23857 ft | 297 kts | 242° |
| 2026-05-06 19:48 | 46.19620 | -74.43932 | 23857 ft | 297 kts | 242° |
| 2026-05-06 19:48 | 46.18692 | -74.46530 | 23857 ft | 297 kts | 242° |
| 2026-05-06 19:48 | 46.17749 | -74.49161 | 23857 ft | 297 kts | 242° |
| 2026-05-06 19:49 | 46.16808 | -74.51780 | 23857 ft | 297 kts | 242° |
| 2026-05-06 19:49 | 46.15865 | -74.54396 | 23857 ft | 298 kts | 242° |
| 2026-05-06 19:49 | 46.14927 | -74.56996 | 23857 ft | 298 kts | 242° |
| 2026-05-06 19:49 | 46.14017 | -74.59515 | 23857 ft | 298 kts | 242° |
| 2026-05-06 19:50 | 46.13373 | -74.61298 | 23857 ft | 298 kts | 242° |
| 2026-05-06 19:50 | 46.12439 | -74.63882 | 23857 ft | 298 kts | 242° |
| 2026-05-06 19:50 | 46.11487 | -74.66510 | 23857 ft | 298 kts | 242° |
| 2026-05-06 19:50 | 46.10535 | -74.69136 | 23855 ft | 297 kts | 242° |
| 2026-05-06 19:51 | 46.09590 | -74.71742 | 23856 ft | 296 kts | 242° |
| 2026-05-06 19:51 | 46.08649 | -74.74335 | 23856 ft | 294 kts | 242° |
| 2026-05-06 19:51 | 46.08158 | -74.75684 | 23856 ft | 293 kts | 242° |
| 2026-05-06 19:51 | 46.08000 | -74.76125 | 23856 ft | 290 kts | 242° |
| 2026-05-06 19:52 | 46.07848 | -74.76542 | 23855 ft | 287 kts | 242° |
| 2026-05-06 19:52 | 46.06935 | -74.79063 | 23854 ft | 287 kts | 242° |
| 2026-05-06 19:52 | 46.06318 | -74.80765 | 23853 ft | 287 kts | 242° |
| 2026-05-06 19:52 | 46.05417 | -74.83244 | 23850 ft | 287 kts | 242° |
| 2026-05-06 19:53 | 46.04509 | -74.85736 | 23853 ft | 287 kts | 242° |
| 2026-05-06 19:53 | 46.03600 | -74.88240 | 23855 ft | 286 kts | 242° |
| 2026-05-06 19:53 | 46.02692 | -74.90727 | 23855 ft | 286 kts | 242° |
| 2026-05-06 19:53 | 46.01771 | -74.93233 | 23855 ft | 286 kts | 241° |
| 2026-05-06 19:54 | 46.00846 | -74.95749 | 23855 ft | 286 kts | 241° |
| 2026-05-06 19:54 | 45.99927 | -74.98247 | 23855 ft | 286 kts | 241° |
| 2026-05-06 19:54 | 45.99007 | -75.00754 | 23855 ft | 286 kts | 242° |
| 2026-05-06 19:54 | 45.98136 | -75.03126 | 23846 ft | 286 kts | 242° |
| 2026-05-06 19:55 | 45.97242 | -75.05560 | 23840 ft | 285 kts | 242° |
| 2026-05-06 19:55 | 45.96625 | -75.07241 | 23842 ft | 286 kts | 242° |
| 2026-05-06 19:55 | 45.95720 | -75.09702 | 23830 ft | 285 kts | 241° |
| 2026-05-06 19:55 | 45.94813 | -75.12172 | 23501 ft | 287 kts | 242° |
| 2026-05-06 19:56 | 45.93895 | -75.14674 | 23063 ft | 287 kts | 242° |
| 2026-05-06 19:56 | 45.92985 | -75.17153 | 22616 ft | 287 kts | 242° |
| 2026-05-06 19:56 | 45.92062 | -75.19653 | 22192 ft | 287 kts | 242° |
| 2026-05-06 19:56 | 45.91128 | -75.22175 | 21741 ft | 287 kts | 242° |
| 2026-05-06 19:57 | 45.90182 | -75.24729 | 21272 ft | 288 kts | 242° |
| 2026-05-06 19:57 | 45.89246 | -75.27253 | 20832 ft | 288 kts | 242° |
| 2026-05-06 19:57 | 45.88316 | -75.29761 | 20377 ft | 287 kts | 241° |
| 2026-05-06 19:57 | 45.87373 | -75.32316 | 19928 ft | 286 kts | 242° |
| 2026-05-06 19:58 | 45.86755 | -75.33986 | 19630 ft | 285 kts | 241° |
| 2026-05-06 19:58 | 45.85832 | -75.36468 | 19180 ft | 284 kts | 241° |
| 2026-05-06 19:58 | 45.84906 | -75.38961 | 18738 ft | 284 kts | 241° |
| 2026-05-06 19:58 | 45.83971 | -75.41475 | 18298 ft | 283 kts | 241° |
| 2026-05-06 19:59 | 45.83031 | -75.43985 | 17840 ft | 283 kts | 241° |
| 2026-05-06 19:59 | 45.82126 | -75.46397 | 17418 ft | 282 kts | 241° |
| 2026-05-06 19:59 | 45.81194 | -75.48883 | 17019 ft | 280 kts | 241° |
| 2026-05-06 19:59 | 45.80286 | -75.51308 | 16614 ft | 279 kts | 241° |
| 2026-05-06 20:00 | 45.79385 | -75.53712 | 16201 ft | 279 kts | 242° |
| 2026-05-06 20:00 | 45.78487 | -75.56105 | 15789 ft | 279 kts | 241° |
| 2026-05-06 20:00 | 45.77571 | -75.58539 | 15356 ft | 279 kts | 241° |
| 2026-05-06 20:00 | 45.76962 | -75.60161 | 15073 ft | 279 kts | 242° |
| 2026-05-06 20:01 | 45.76043 | -75.62611 | 14637 ft | 279 kts | 242° |
| 2026-05-06 20:01 | 45.75106 | -75.65066 | 14216 ft | 279 kts | 239° |
| 2026-05-06 20:01 | 45.73880 | -75.67229 | 13804 ft | 280 kts | 226° |
| 2026-05-06 20:01 | 45.72340 | -75.68946 | 13367 ft | 283 kts | 219° |
| 2026-05-06 20:02 | 45.70686 | -75.70517 | 12915 ft | 285 kts | 217° |
| 2026-05-06 20:02 | 45.69005 | -75.72030 | 12453 ft | 287 kts | 216° |
| 2026-05-06 20:02 | 45.67303 | -75.73493 | 12009 ft | 289 kts | 215° |
| 2026-05-06 20:02 | 45.65569 | -75.74933 | 11537 ft | 291 kts | 214° |
| 2026-05-06 20:03 | 45.63781 | -75.76394 | 11075 ft | 293 kts | 214° |
| 2026-05-06 20:03 | 45.62024 | -75.77822 | 10615 ft | 296 kts | 214° |
| 2026-05-06 20:03 | 45.60801 | -75.78807 | 10323 ft | 296 kts | 213° |
| 2026-05-06 20:03 | 45.58956 | -75.79868 | 10018 ft | 296 kts | 199° |
| 2026-05-06 20:04 | 45.56917 | -75.80048 | 9583 ft | 298 kts | 181° |
| 2026-05-06 20:04 | 45.54882 | -75.79426 | 9077 ft | 295 kts | 169° |
| 2026-05-06 20:04 | 45.53013 | -75.78398 | 8580 ft | 282 kts | 163° |
| 2026-05-06 20:04 | 45.51276 | -75.77282 | 8106 ft | 269 kts | 161° |
| 2026-05-06 20:05 | 45.49608 | -75.76140 | 7649 ft | 267 kts | 160° |
| 2026-05-06 20:05 | 45.47956 | -75.74962 | 7208 ft | 268 kts | 158° |
| 2026-05-06 20:05 | 45.46317 | -75.73748 | 6762 ft | 269 kts | 157° |
| 2026-05-06 20:05 | 45.44814 | -75.72212 | 6494 ft | 268 kts | 135° |
| 2026-05-06 20:06 | 45.44120 | -75.70745 | 6298 ft | 267 kts | 117° |
| 2026-05-06 20:06 | 45.43716 | -75.68176 | 5931 ft | 268 kts | 90° |
| 2026-05-06 20:06 | 45.44112 | -75.65637 | 5589 ft | 264 kts | 64° |
| 2026-05-06 20:06 | 45.44957 | -75.63319 | 5165 ft | 266 kts | 61° |
| 2026-05-06 20:07 | 45.45688 | -75.60926 | 4660 ft | 261 kts | 67° |
| 2026-05-06 20:07 | 45.46308 | -75.58545 | 4174 ft | 253 kts | 69° |
| 2026-05-06 20:07 | 45.46646 | -75.56157 | 3983 ft | 235 kts | 90° |
| 2026-05-06 20:07 | 45.46287 | -75.53944 | 3722 ft | 221 kts | 116° |
| 2026-05-06 20:08 | 45.45485 | -75.52087 | 3385 ft | 215 kts | 130° |
| 2026-05-06 20:08 | 45.44489 | -75.50536 | 3222 ft | 210 kts | 139° |
| 2026-05-06 20:08 | 45.43387 | -75.49204 | 3096 ft | 204 kts | 150° |
| 2026-05-06 20:08 | 45.42562 | -75.48700 | 3074 ft | 195 kts | 169° |
| 2026-05-06 20:09 | 45.41270 | -75.48660 | 2957 ft | 189 kts | 194° |
| 2026-05-06 20:09 | 45.40096 | -75.49351 | 2773 ft | 188 kts | 214° |
| 2026-05-06 20:09 | 45.39102 | -75.50540 | 2560 ft | 191 kts | 226° |
| 2026-05-06 20:09 | 45.38260 | -75.51949 | 2345 ft | 190 kts | 233° |
| 2026-05-06 20:10 | 45.37509 | -75.53410 | 2237 ft | 181 kts | 234° |
| 2026-05-06 20:10 | 45.36789 | -75.54926 | 1972 ft | 184 kts | 236° |
| 2026-05-06 20:10 | 45.36104 | -75.56469 | 1772 ft | 172 kts | 236° |
| 2026-05-06 20:10 | 45.35455 | -75.57959 | 1482 ft | 166 kts | 237° |
| 2026-05-06 20:11 | 45.34837 | -75.59358 | 1227 ft | 158 kts | 236° |
| 2026-05-06 20:11 | 45.34258 | -75.60649 | 999 ft | 144 kts | 235° |
| 2026-05-06 20:11 | 45.33905 | -75.61433 | 863 ft | 142 kts | 235° |
| 2026-05-06 20:11 | 45.33378 | -75.62605 | 756 ft | 138 kts | 234° |
| 2026-05-06 20:12 | 45.32853 | -75.63763 | 552 ft | 143 kts | 234° |
| 2026-05-06 20:12 | 45.32317 | -75.64952 | 396 ft | 137 kts | 237° |
| 2026-05-06 20:12 | 45.31901 | -75.65854 | 382 ft | 70 kts | 241° |
| 2026-05-06 20:12 | 45.31811 | -75.66057 | 382 ft | 13 kts | 236° |
| 2026-05-06 20:13 | 45.31754 | -75.66181 | 382 ft | 16 kts | 238° |
| 2026-05-06 20:13 | 45.31754 | -75.66331 | 382 ft | 17 kts | 308° |
| 2026-05-06 20:13 | 45.31830 | -75.66464 | 382 ft | 15 kts | 327° |
| 2026-05-06 20:13 | 45.31922 | -75.66485 | 382 ft | 12 kts | 355° |
| 2026-05-06 20:14 | 45.31974 | -75.66490 | 382 ft | 4 kts | 353° |
| 2026-05-06 20:14 | 45.31991 | -75.66494 | 382 ft | 4 kts | 352° |
| 2026-05-06 20:14 | 45.32004 | -75.66496 | 382 ft | 0 kts | 353° |